createdAt,value
2019-06-10T00:00:51.711Z,156.47
2019-06-10T00:03:20.888Z,108.27
2019-06-10T00:05:51.760Z,165.75
2019-06-10T00:08:21.206Z,157.75
2019-06-10T00:10:51.053Z,110.85
2019-06-10T00:13:21.013Z,162.53
2019-06-10T00:15:51.570Z,119.65
2019-06-10T00:18:37.262Z,169.85
2019-06-10T00:20:52.214Z,283.95
2019-06-10T00:23:21.471Z,144.75
2019-06-10T00:25:51.639Z,86.32
2019-06-10T00:28:21.780Z,129.42
2019-06-10T00:30:51.687Z,85.25
2019-06-10T00:33:21.651Z,139.57
2019-06-10T00:35:51.519Z,93.60
2019-06-10T00:38:21.378Z,136.22
2019-06-10T00:40:51.420Z,87.53
2019-06-10T00:43:21.356Z,128.82
2019-06-10T00:45:51.500Z,85.20
2019-06-10T00:48:26.078Z,159.65
2019-06-10T00:50:51.950Z,87.95
2019-06-10T00:53:21.547Z,138.30
2019-06-10T00:55:51.672Z,84.50
2019-06-10T00:58:21.616Z,136.57
2019-06-10T01:00:51.701Z,91.92
2019-06-10T01:03:21.144Z,158.03
2019-06-10T01:05:50.836Z,89.03
2019-06-10T01:08:21.420Z,152.38
2019-06-10T01:10:52.215Z,90.92
2019-06-10T01:13:21.646Z,137.55
2019-06-10T01:15:51.215Z,91.65
2019-06-10T01:20:51.702Z,97.50
2019-06-10T01:23:21.870Z,162.62
2019-06-10T01:25:51.252Z,101.65
2019-06-10T01:28:22.010Z,135.57
2019-06-10T01:30:51.803Z,89.60
2019-06-10T01:33:21.585Z,140.62
2019-06-10T01:38:21.278Z,138.12
2019-06-10T01:43:21.470Z,137.85
2019-06-10T01:45:53.369Z,106.40
2019-06-10T01:48:22.564Z,197.13
2019-06-10T01:50:51.722Z,108.25
2019-06-10T01:53:22.081Z,149.32
2019-06-10T01:55:52.017Z,106.63
2019-06-10T01:58:23.580Z,155.55
2019-06-10T02:01:15.635Z,111.57
2019-06-10T02:03:43.214Z,109.92
2019-06-10T02:06:20.502Z,144.05
2019-06-10T02:08:47.419Z,107.65
2019-06-10T02:11:18.765Z,133.70
2019-06-10T02:13:51.400Z,100.55
2019-06-10T02:16:23.881Z,153.65
2019-06-10T02:19:00.322Z,102.78
2019-06-10T02:21:24.417Z,154.82
2019-06-10T02:23:53.442Z,104.45
2019-06-10T02:26:23.694Z,147.37
2019-06-10T02:28:53.036Z,101.10
2019-06-10T02:31:30.127Z,137.50
2019-06-10T02:33:53.126Z,91.15
2019-06-10T02:36:30.826Z,134.27
2019-06-10T02:38:54.123Z,86.20
2019-06-10T02:41:31.692Z,155.55
2019-06-10T02:43:54.311Z,84.03
2019-06-10T02:46:43.826Z,142.57
2019-06-10T02:49:29.833Z,114.22
2019-06-10T02:51:44.501Z,86.10
2019-06-10T02:54:16.305Z,107.25
2019-06-10T02:56:44.703Z,90.60
2019-06-10T02:59:15.912Z,120.57
2019-06-10T03:01:44.844Z,85.30
2019-06-10T03:04:14.530Z,111.90
2019-06-10T03:06:45.193Z,88.10
2019-06-10T03:09:16.129Z,117.93
2019-06-10T03:11:48.306Z,84.87
2019-06-10T03:14:17.765Z,120.60
2019-06-10T03:16:52.816Z,92.50
2019-06-10T03:19:39.728Z,152.32
2019-06-10T03:21:52.979Z,93.07
2019-06-10T03:24:23.965Z,157.57
2019-06-10T03:26:53.069Z,90.22
2019-06-10T03:29:24.636Z,141.80
2019-06-10T03:31:55.308Z,92.33
2019-06-10T03:34:33.584Z,138.60
2019-06-10T03:36:55.347Z,89.92
2019-06-10T03:39:26.889Z,138.80
2019-06-10T03:41:55.498Z,91.22
2019-06-10T03:44:26.366Z,143.02
2019-06-10T03:46:55.666Z,97.55
2019-06-10T03:49:27.045Z,149.97
2019-06-10T03:51:56.925Z,100.30
2019-06-10T03:54:28.214Z,189.57
2019-06-10T03:56:56.984Z,104.45
2019-06-10T03:59:29.039Z,155.65
2019-06-10T04:01:57.286Z,109.63
2019-06-10T04:06:57.355Z,174.90
2019-06-10T04:09:27.485Z,153.20
2019-06-10T04:11:57.535Z,230.15
2019-06-10T04:14:28.446Z,137.70
2019-06-10T04:16:57.676Z,170.22
2019-06-10T04:19:27.487Z,136.40
2019-06-10T04:21:58.082Z,193.47
2019-06-10T04:24:28.626Z,130.97
2019-06-10T04:26:58.004Z,179.05
2019-06-10T04:29:28.667Z,128.05
2019-06-10T04:32:03.065Z,168.25
2019-06-10T04:34:33.471Z,135.95
2019-06-10T04:37:03.685Z,162.53
2019-06-10T04:39:33.653Z,137.07
2019-06-10T04:42:03.050Z,169.77
2019-06-10T04:44:33.119Z,120.62
2019-06-10T04:47:02.837Z,163.00
2019-06-10T04:49:33.687Z,135.12
2019-06-10T04:52:04.411Z,167.75
2019-06-10T04:54:33.607Z,147.25
2019-06-10T04:57:02.812Z,150.72
2019-06-10T04:59:33.632Z,121.90
2019-06-10T05:02:05.660Z,150.32
2019-06-10T05:04:34.030Z,160.05
2019-06-10T05:07:03.210Z,133.55
2019-06-10T05:09:33.584Z,142.65
2019-06-10T05:12:03.669Z,179.93
2019-06-10T05:14:33.481Z,179.10
2019-06-10T05:17:03.447Z,180.90
2019-06-10T05:19:36.972Z,180.65
2019-06-10T05:22:06.152Z,188.10
2019-06-10T05:24:35.333Z,161.00
2019-06-10T05:27:04.970Z,154.42
2019-06-10T05:32:03.473Z,156.63
2019-06-10T05:34:35.014Z,177.82
2019-06-10T05:37:05.810Z,217.40
2019-06-10T05:39:35.812Z,250.30
2019-06-10T05:42:05.267Z,244.62
2019-06-10T05:44:35.858Z,223.32
2019-06-10T05:47:05.903Z,237.40
2019-06-10T05:49:36.146Z,269.30
2019-06-10T05:52:05.511Z,260.45
2019-06-10T05:54:35.473Z,210.35
2019-06-10T05:57:04.919Z,220.20
2019-06-10T05:59:35.816Z,202.05
2019-06-10T06:02:05.369Z,233.15
2019-06-10T06:04:36.070Z,204.75
2019-06-10T06:07:05.634Z,265.57
2019-06-10T06:09:35.408Z,222.65
2019-06-10T06:12:04.773Z,273.62
2019-06-10T06:14:36.065Z,231.15
2019-06-10T06:17:05.501Z,269.10
2019-06-10T06:19:38.479Z,239.88
2019-06-10T06:22:07.396Z,226.32
2019-06-10T06:24:37.958Z,281.77
2019-06-10T06:27:08.432Z,259.95
2019-06-10T06:29:38.284Z,272.70
2019-06-10T06:34:38.692Z,281.27
2019-06-10T06:37:07.938Z,274.92
2019-06-10T06:39:38.249Z,275.43
2019-06-10T06:42:09.485Z,266.85
2019-06-10T06:44:39.512Z,299.35
2019-06-10T06:47:09.800Z,295.52
2019-06-10T06:49:38.979Z,293.00
2019-06-10T06:52:08.245Z,275.73
2019-06-10T06:54:39.093Z,279.87
2019-06-10T06:57:08.561Z,277.52
2019-06-10T06:59:39.045Z,267.37
2019-06-10T07:02:08.736Z,290.45
2019-06-10T07:04:38.730Z,279.27
2019-06-10T07:07:10.014Z,273.40
2019-06-10T07:09:40.618Z,282.07
2019-06-10T07:12:11.024Z,262.77
2019-06-10T07:14:45.065Z,287.70
2019-06-10T07:17:16.399Z,266.17
2019-06-10T07:19:49.392Z,301.48
2019-06-10T07:22:19.307Z,263.23
2019-06-10T07:24:48.685Z,259.12
2019-06-10T07:27:22.574Z,258.93
2019-06-10T07:29:52.977Z,290.55
2019-06-10T07:32:22.799Z,251.92
2019-06-10T07:34:57.232Z,288.73
2019-06-10T07:37:27.542Z,264.80
2019-06-10T07:40:04.123Z,289.27
2019-06-10T07:42:36.323Z,272.70
2019-06-10T07:45:07.476Z,262.10
2019-06-10T07:47:37.010Z,290.50
2019-06-10T07:50:09.019Z,284.60
2019-06-10T07:52:39.309Z,288.80
2019-06-10T07:55:08.947Z,271.98
2019-06-10T07:57:39.267Z,306.50
2019-06-10T08:00:15.101Z,288.78
2019-06-10T08:03:04.098Z,141.60
2019-06-10T08:05:34.240Z,103.83
2019-06-10T08:08:05.032Z,94.55
2019-06-10T08:10:35.390Z,105.15
2019-06-10T08:13:04.703Z,92.90
2019-06-10T08:18:04.264Z,89.00
2019-06-10T08:20:47.613Z,108.22
2019-06-10T08:23:18.157Z,80.67
2019-06-10T08:25:53.708Z,132.65
2019-06-10T08:28:19.198Z,82.90
2019-06-10T08:33:17.514Z,80.38
2019-06-10T08:35:56.027Z,150.90
2019-06-10T08:38:17.624Z,81.05
2019-06-10T08:43:16.927Z,85.03
2019-06-10T08:48:16.213Z,87.10
2019-06-10T08:50:49.651Z,132.07
2019-06-10T08:53:18.236Z,86.00
2019-06-10T08:55:50.083Z,129.45
2019-06-10T08:58:18.193Z,81.97
2019-06-10T09:03:18.593Z,86.00
2019-06-10T09:05:49.866Z,130.47
2019-06-10T09:08:18.652Z,92.90
2019-06-10T09:10:51.593Z,155.70
2019-06-10T09:13:22.247Z,86.90
2019-06-10T09:16:10.496Z,129.75
2019-06-10T09:18:23.252Z,87.90
2019-06-10T09:20:55.828Z,124.95
2019-06-10T09:23:25.677Z,145.85
2019-06-10T09:25:57.256Z,93.92
2019-06-10T09:28:25.241Z,100.65
2019-06-10T09:33:25.016Z,102.47
2019-06-10T09:35:55.021Z,86.30
2019-06-10T09:38:27.770Z,123.15
2019-06-10T09:41:01.724Z,89.17
2019-06-10T09:43:27.895Z,94.58
2019-06-10T09:48:28.149Z,93.20
2019-06-10T09:50:58.937Z,94.85
2019-06-10T09:53:38.909Z,100.05
2019-06-10T09:56:04.225Z,99.20
2019-06-10T09:58:33.997Z,85.35
2019-06-10T10:01:04.769Z,117.25
2019-06-10T10:03:34.136Z,89.58
2019-06-10T10:06:14.526Z,110.17
2019-06-10T10:08:38.543Z,85.72
2019-06-10T10:11:09.222Z,128.72
2019-06-10T10:13:38.614Z,89.05
2019-06-10T10:16:07.792Z,125.67
2019-06-10T10:18:37.014Z,102.90
2019-06-10T10:23:50.068Z,87.90
2019-06-10T10:26:05.682Z,114.97
2019-06-10T10:28:35.673Z,86.35
2019-06-10T10:31:05.778Z,112.42
2019-06-10T10:33:35.988Z,90.55
2019-06-10T10:36:05.870Z,112.10
2019-06-10T10:38:35.112Z,89.47
2019-06-10T10:43:37.599Z,84.75
2019-06-10T10:46:07.911Z,133.27
2019-06-10T10:48:37.079Z,84.35
2019-06-10T10:51:06.293Z,119.72
2019-06-10T10:53:35.421Z,83.00
2019-06-10T10:56:04.749Z,125.92
2019-06-10T10:58:34.712Z,87.05
2019-06-10T11:01:04.826Z,127.32
2019-06-10T11:03:34.346Z,93.52
2019-06-10T11:08:33.426Z,84.53
2019-06-10T11:11:05.270Z,130.22
2019-06-10T11:13:36.895Z,86.47
2019-06-10T11:16:06.853Z,120.90
2019-06-10T11:18:36.254Z,87.37
2019-06-10T11:21:05.487Z,131.47
2019-06-10T11:23:34.874Z,110.65
2019-06-10T11:26:05.129Z,193.95
2019-06-10T11:28:35.423Z,97.95
2019-06-10T11:31:05.811Z,147.13
2019-06-10T11:33:34.942Z,94.85
2019-06-10T11:38:35.030Z,96.40
2019-06-10T11:43:33.243Z,97.13
2019-06-10T11:46:06.971Z,140.03
2019-06-10T11:48:33.450Z,99.80
2019-06-10T11:53:34.503Z,100.82
2019-06-10T11:56:06.531Z,171.25
2019-06-10T11:58:37.957Z,105.58
2019-06-10T12:01:07.143Z,145.15
2019-06-10T12:06:06.050Z,147.90
2019-06-10T12:08:35.781Z,99.05
2019-06-10T12:11:06.563Z,139.62
2019-06-10T12:13:35.724Z,101.18
2019-06-10T12:17:05.186Z,147.60
2019-06-10T12:18:37.796Z,83.82
2019-06-10T12:21:06.973Z,119.00
2019-06-10T12:26:05.314Z,129.27
2019-06-10T12:28:34.854Z,82.40
2019-06-10T12:33:38.534Z,82.33
2019-06-10T12:38:39.429Z,84.85
2019-06-10T12:41:10.427Z,119.53
2019-06-10T12:43:39.521Z,134.63
2019-06-10T12:51:09.702Z,83.37
2019-06-10T12:53:39.593Z,131.07
2019-06-10T12:56:11.310Z,82.25
2019-06-10T12:58:42.895Z,138.20
2019-06-10T13:01:11.554Z,81.67
2019-06-10T13:03:43.270Z,127.32
2019-06-10T13:06:16.390Z,82.67
2019-06-10T13:08:46.224Z,83.82
2019-06-10T13:11:23.305Z,103.35
2019-06-10T13:13:56.166Z,101.25
2019-06-10T13:16:26.015Z,82.15
2019-06-10T13:18:56.095Z,100.47
2019-06-10T13:21:25.540Z,83.62
2019-06-10T13:23:55.986Z,101.02
2019-06-10T13:26:26.059Z,88.42
2019-06-10T13:28:57.185Z,96.87
2019-06-10T13:31:28.279Z,81.63
2019-06-10T13:34:04.714Z,101.27
2019-06-10T13:36:33.058Z,84.07
2019-06-10T13:39:08.043Z,96.45
2019-06-10T13:41:35.236Z,120.35
2019-06-10T13:44:08.297Z,87.75
2019-06-10T13:46:42.649Z,109.95
2019-06-10T13:49:15.433Z,97.37
2019-06-10T13:51:45.121Z,88.37
2019-06-10T13:56:47.785Z,91.00
2019-06-10T13:59:17.177Z,114.20
2019-06-10T14:07:17.421Z,125.38
2019-06-10T14:09:43.873Z,83.62
2019-06-10T14:12:17.636Z,121.77
2019-06-10T14:14:43.968Z,86.32
2019-06-10T14:19:43.411Z,83.42
2019-06-10T14:22:16.009Z,126.05
2019-06-10T14:24:45.757Z,84.45
2019-06-10T14:29:46.323Z,84.47
2019-06-10T14:32:17.223Z,112.80
2019-06-10T14:34:46.844Z,83.35
2019-06-10T14:37:32.148Z,118.62
2019-06-10T14:39:52.744Z,85.75
2019-06-10T14:42:26.718Z,103.53
2019-06-10T14:44:58.794Z,90.12
2019-06-10T14:47:29.069Z,120.95
2019-06-10T14:49:58.599Z,86.67
2019-06-10T14:52:28.574Z,117.50
2019-06-10T14:55:02.432Z,88.82
2019-06-10T14:57:33.305Z,135.18
2019-06-10T15:00:03.070Z,86.50
2019-06-10T15:02:33.399Z,150.30
2019-06-10T15:05:03.065Z,85.42
2019-06-10T15:07:34.234Z,135.12
2019-06-10T15:10:04.460Z,101.10
2019-06-10T15:12:35.453Z,141.25
2019-06-10T15:15:08.146Z,102.05
2019-06-10T15:17:38.907Z,125.38
2019-06-10T15:20:09.596Z,88.12
2019-06-10T15:22:38.761Z,110.22
2019-06-10T15:25:11.546Z,126.38
2019-06-10T15:27:42.749Z,86.22
2019-06-10T15:30:20.737Z,123.90
2019-06-10T15:32:42.925Z,86.75
2019-06-10T15:35:16.079Z,127.05
2019-06-10T15:37:45.462Z,85.80
2019-06-10T15:40:16.637Z,119.97
2019-06-10T15:42:45.908Z,88.75
2019-06-10T15:47:47.044Z,91.15
2019-06-10T15:50:17.362Z,119.00
2019-06-10T15:52:47.270Z,102.82
2019-06-10T15:57:46.816Z,101.55
2019-06-10T16:02:48.581Z,101.95
2019-06-10T16:05:21.357Z,124.07
2019-06-10T16:07:52.994Z,97.00
2019-06-10T16:10:27.483Z,137.90
2019-06-10T16:12:53.991Z,106.78
2019-06-10T16:17:54.581Z,104.00
2019-06-10T16:22:54.169Z,113.03
2019-06-10T16:25:26.291Z,115.72
2019-06-10T16:27:55.513Z,94.00
2019-06-10T16:30:26.041Z,120.30
2019-06-10T16:32:55.328Z,94.50
2019-06-10T16:35:26.768Z,131.35
2019-06-10T16:37:56.862Z,87.10
2019-06-10T16:40:27.229Z,123.18
2019-06-10T16:42:57.628Z,92.45
2019-06-10T16:45:30.648Z,121.22
2019-06-10T16:47:59.119Z,94.97
2019-06-10T16:50:33.718Z,146.43
2019-06-10T16:53:02.997Z,127.05
2019-06-10T16:55:33.820Z,97.65
2019-06-10T16:58:03.867Z,132.87
2019-06-10T17:00:34.842Z,94.92
2019-06-10T17:03:05.510Z,122.25
2019-06-10T17:05:35.204Z,90.53
2019-06-10T17:08:04.690Z,119.28
2019-06-10T17:10:34.542Z,92.72
2019-06-10T17:13:06.499Z,113.75
2019-06-10T17:15:35.772Z,93.82
2019-06-10T17:20:37.458Z,91.95
2019-06-10T17:23:21.800Z,106.22
2019-06-10T17:25:56.829Z,123.42
2019-06-10T17:28:31.756Z,90.53
2019-06-10T17:30:59.183Z,124.45
2019-06-10T17:33:30.417Z,90.47
2019-06-10T17:36:03.106Z,129.40
2019-06-10T17:38:31.589Z,91.42
2019-06-10T17:41:02.995Z,124.27
2019-06-10T17:43:34.024Z,91.65
2019-06-10T17:46:03.526Z,144.40
2019-06-10T17:48:33.680Z,117.20
2019-06-10T17:51:05.173Z,134.32
2019-06-10T17:53:35.082Z,96.97
2019-06-10T17:56:04.429Z,124.38
2019-06-10T18:01:03.754Z,132.78
2019-06-10T18:03:33.420Z,97.45
2019-06-10T18:06:04.115Z,140.32
2019-06-10T18:08:36.308Z,100.38
2019-06-10T18:11:04.637Z,121.62
2019-06-10T18:13:35.926Z,112.85
2019-06-10T18:16:06.381Z,114.92
2019-06-10T18:18:37.286Z,115.00
2019-06-10T18:21:06.927Z,102.92
2019-06-10T18:23:36.106Z,103.90
2019-06-10T18:26:05.269Z,108.63
2019-06-10T18:28:52.709Z,98.27
2019-06-10T18:31:05.332Z,102.72
2019-06-10T18:33:37.502Z,103.12
2019-06-10T18:36:05.562Z,102.22
2019-06-10T18:38:37.154Z,95.90
2019-06-10T18:41:05.933Z,99.75
2019-06-10T18:43:35.723Z,100.20
2019-06-10T18:46:06.048Z,100.58
2019-06-10T18:48:37.877Z,99.28
2019-06-10T18:51:06.306Z,106.67
2019-06-10T18:53:36.442Z,102.20
2019-06-10T18:56:06.892Z,107.85
2019-06-10T18:58:37.484Z,112.70
2019-06-10T19:01:08.178Z,138.37
2019-06-10T19:03:38.265Z,113.90
2019-06-10T19:06:09.327Z,110.28
2019-06-10T19:08:39.325Z,133.27
2019-06-10T19:11:09.770Z,104.63
2019-06-10T19:16:09.064Z,108.63
2019-06-10T19:18:38.521Z,121.37
2019-06-10T19:23:39.390Z,118.17
2019-06-10T19:26:08.983Z,95.30
2019-06-10T19:28:39.175Z,111.32
2019-06-10T19:31:09.038Z,100.53
2019-06-10T19:33:39.265Z,114.05
2019-06-10T19:36:09.158Z,98.82
2019-06-10T19:38:39.922Z,117.25
2019-06-10T19:41:09.046Z,101.75
2019-06-10T19:43:39.788Z,168.82
2019-06-10T19:46:09.111Z,100.85
2019-06-10T19:48:41.636Z,149.70
2019-06-10T19:51:09.187Z,107.83
2019-06-10T19:53:38.918Z,155.27
2019-06-10T19:56:08.170Z,112.08
2019-06-10T19:58:38.229Z,178.47
2019-06-10T20:01:07.568Z,109.55
2019-06-10T20:03:37.812Z,143.72
2019-06-10T20:06:06.947Z,89.70
2019-06-10T20:08:36.163Z,140.45
2019-06-10T20:11:06.358Z,97.88
2019-06-10T20:13:36.467Z,172.50
2019-06-10T20:16:05.660Z,100.53
2019-06-10T20:18:35.903Z,147.47
2019-06-10T20:21:05.171Z,98.60
2019-06-10T20:23:35.407Z,128.00
2019-06-10T20:26:04.668Z,94.83
2019-06-10T20:28:33.944Z,172.45
2019-06-10T20:31:03.104Z,99.40
2019-06-10T20:33:37.001Z,106.15
2019-06-10T20:36:07.045Z,166.55
2019-06-10T20:38:35.963Z,103.72
2019-06-10T20:41:05.418Z,146.02
2019-06-10T20:43:34.745Z,97.97
2019-06-10T20:46:05.908Z,139.77
2019-06-10T20:48:35.423Z,99.05
2019-06-10T20:51:04.588Z,140.25
2019-06-10T20:53:34.014Z,95.85
2019-06-10T20:58:33.441Z,101.02
2019-06-10T21:01:05.014Z,132.47
2019-06-10T21:03:34.785Z,103.72
2019-06-10T21:06:05.675Z,140.37
2019-06-10T21:08:35.408Z,97.17
2019-06-10T21:11:05.025Z,141.45
2019-06-10T21:13:36.223Z,106.95
2019-06-10T21:16:05.393Z,146.77
2019-06-10T21:18:34.553Z,108.92
2019-06-10T21:21:03.750Z,138.50
2019-06-10T21:23:32.996Z,111.08
2019-06-10T21:26:03.157Z,147.57
2019-06-10T21:28:32.898Z,129.05
2019-06-10T21:31:03.197Z,162.55
2019-06-10T21:33:33.551Z,118.10
2019-06-10T21:36:03.886Z,144.10
2019-06-10T21:38:33.909Z,103.95
2019-06-10T21:41:03.920Z,164.88
2019-06-10T21:43:33.325Z,98.92
2019-06-10T21:48:32.794Z,93.20
2019-06-10T21:51:01.974Z,127.78
2019-06-10T21:53:32.245Z,94.87
2019-06-10T21:56:03.183Z,125.95
2019-06-10T21:58:33.651Z,93.27
2019-06-10T22:01:12.579Z,134.52
2019-06-10T22:03:35.044Z,95.00
2019-06-10T22:06:05.022Z,144.53
2019-06-10T22:08:34.894Z,142.93
2019-06-10T22:11:05.028Z,97.00
2019-06-10T22:13:38.005Z,146.32
2019-06-10T22:16:07.799Z,100.47
2019-06-10T22:18:38.762Z,171.15
2019-06-10T22:21:08.196Z,111.05
2019-06-10T22:23:42.242Z,142.93
2019-06-10T22:26:13.114Z,119.25
2019-06-10T22:28:43.294Z,129.97
2019-06-10T22:31:22.299Z,99.25
2019-06-10T22:33:43.486Z,112.40
2019-06-10T22:36:15.707Z,99.67
2019-06-10T22:38:45.964Z,122.00
2019-06-10T22:41:15.235Z,109.67
2019-06-10T22:43:44.737Z,114.28
2019-06-10T22:46:14.413Z,102.10
2019-06-10T22:48:44.309Z,139.88
2019-06-10T22:51:14.289Z,104.58
2019-06-10T22:53:44.171Z,124.22
2019-06-10T22:56:13.349Z,101.97
2019-06-10T22:58:42.534Z,119.80
2019-06-10T23:01:12.464Z,98.55
2019-06-10T23:03:42.361Z,160.20
2019-06-10T23:06:12.634Z,105.60
2019-06-10T23:08:43.753Z,134.95
2019-06-10T23:11:13.092Z,109.80
2019-06-10T23:13:44.276Z,128.87
2019-06-10T23:16:14.387Z,119.70
2019-06-10T23:18:46.330Z,133.60
2019-06-10T23:21:17.768Z,116.15
2019-06-10T23:23:46.961Z,108.42
2019-06-10T23:26:16.152Z,113.12
2019-06-10T23:28:46.105Z,122.98
2019-06-10T23:31:15.282Z,117.87
2019-06-10T23:33:44.433Z,119.80
2019-06-10T23:36:14.691Z,111.85
2019-06-10T23:38:44.149Z,132.87
2019-06-10T23:41:13.641Z,116.37
2019-06-10T23:46:12.108Z,114.92
2019-06-10T23:48:42.380Z,146.85
2019-06-10T23:51:12.193Z,135.10
2019-06-10T23:53:41.447Z,162.68
2019-06-10T23:56:12.704Z,133.55
2019-06-10T23:58:43.333Z,153.25
